sensor_id;sensor_type;location;lat;lon;timestamp;temperature;humidity
8593;DHT22;4334;49.982;8.398;2023-04-05T00:02:02;3.60;99.90
8593;DHT22;4334;49.982;8.398;2023-04-05T00:04:31;3.50;99.90
8593;DHT22;4334;49.982;8.398;2023-04-05T00:07:00;3.50;99.90
8593;DHT22;4334;49.982;8.398;2023-04-05T00:09:27;5.20;99.90
8593;DHT22;4334;49.982;8.398;2023-04-05T00:11:54;3.30;99.90
8593;DHT22;4334;49.982;8.398;2023-04-05T00:14:21;3.20;99.90
8593;DHT22;4334;49.982;8.398;2023-04-05T00:16:48;5.60;99.90
8593;DHT22;4334;49.982;8.398;2023-04-05T00:19:15;3.20;99.90
8593;DHT22;4334;49.982;8.398;2023-04-05T00:21:43;3.10;99.90
8593;DHT22;4334;49.982;8.398;2023-04-05T00:24:11;3.10;99.90
8593;DHT22;4334;49.982;8.398;2023-04-05T00:26:40;3.10;99.90
8593;DHT22;4334;49.982;8.398;2023-04-05T00:29:09;3.20;99.90
8593;DHT22;4334;49.982;8.398;2023-04-05T00:31:36;3.30;99.90
8593;DHT22;4334;49.982;8.398;2023-04-05T00:34:03;3.30;99.90
8593;DHT22;4334;49.982;8.398;2023-04-05T00:36:33;3.30;99.90
8593;DHT22;4334;49.982;8.398;2023-04-05T00:39:01;3.20;99.90
8593;DHT22;4334;49.982;8.398;2023-04-05T00:41:28;3.20;99.90
8593;DHT22;4334;49.982;8.398;2023-04-05T00:43:55;3.20;99.90
8593;DHT22;4334;49.982;8.398;2023-04-05T00:46:25;3.20;99.90
8593;DHT22;4334;49.982;8.398;2023-04-05T00:48:52;3.20;99.90
8593;DHT22;4334;49.982;8.398;2023-04-05T00:51:19;6.30;99.90
8593;DHT22;4334;49.982;8.398;2023-04-05T00:53:49;3.20;99.90
8593;DHT22;4334;49.982;8.398;2023-04-05T00:56:19;3.10;99.90
8593;DHT22;4334;49.982;8.398;2023-04-05T00:58:47;6.80;99.90
8593;DHT22;4334;49.982;8.398;2023-04-05T01:01:18;3.00;99.90
8593;DHT22;4334;49.982;8.398;2023-04-05T01:03:51;3.00;99.90
8593;DHT22;4334;49.982;8.398;2023-04-05T01:06:31;3.00;99.90
8593;DHT22;4334;49.982;8.398;2023-04-05T01:09:07;2.90;99.90
8593;DHT22;4334;49.982;8.398;2023-04-05T01:11:38;3.00;99.90
8593;DHT22;4334;49.982;8.398;2023-04-05T01:14:05;2.80;99.90
8593;DHT22;4334;49.982;8.398;2023-04-05T01:16:32;2.80;99.90
8593;DHT22;4334;49.982;8.398;2023-04-05T01:18:59;2.80;99.90
8593;DHT22;4334;49.982;8.398;2023-04-05T01:21:51;2.70;99.90
8593;DHT22;4334;49.982;8.398;2023-04-05T01:24:29;2.70;99.90
8593;DHT22;4334;49.982;8.398;2023-04-05T01:27:09;2.70;99.90
8593;DHT22;4334;49.982;8.398;2023-04-05T01:29:50;2.60;99.90
8593;DHT22;4334;49.982;8.398;2023-04-05T01:32:29;2.60;99.90
8593;DHT22;4334;49.982;8.398;2023-04-05T01:35:04;2.50;99.90
8593;DHT22;4334;49.982;8.398;2023-04-05T01:37:36;2.40;99.90
8593;DHT22;4334;49.982;8.398;2023-04-05T01:40:06;2.40;99.90
8593;DHT22;4334;49.982;8.398;2023-04-05T01:42:34;2.50;99.90
8593;DHT22;4334;49.982;8.398;2023-04-05T01:45:04;2.50;99.90
8593;DHT22;4334;49.982;8.398;2023-04-05T01:47:31;2.40;99.90
8593;DHT22;4334;49.982;8.398;2023-04-05T01:49:58;2.30;99.90
8593;DHT22;4334;49.982;8.398;2023-04-05T01:52:25;2.20;99.90
8593;DHT22;4334;49.982;8.398;2023-04-05T01:54:51;2.10;99.90
8593;DHT22;4334;49.982;8.398;2023-04-05T01:57:18;4.20;99.90
8593;DHT22;4334;49.982;8.398;2023-04-05T01:59:45;2.10;99.90
8593;DHT22;4334;49.982;8.398;2023-04-05T02:02:13;5.50;99.90
8593;DHT22;4334;49.982;8.398;2023-04-05T02:04:40;2.10;99.90
8593;DHT22;4334;49.982;8.398;2023-04-05T02:07:08;2.00;99.90
8593;DHT22;4334;49.982;8.398;2023-04-05T02:09:34;1.90;99.90
8593;DHT22;4334;49.982;8.398;2023-04-05T02:12:02;1.90;99.90
8593;DHT22;4334;49.982;8.398;2023-04-05T02:14:31;1.90;99.90
8593;DHT22;4334;49.982;8.398;2023-04-05T02:16:59;1.70;99.90
8593;DHT22;4334;49.982;8.398;2023-04-05T02:19:29;1.80;99.90
8593;DHT22;4334;49.982;8.398;2023-04-05T02:22:05;1.70;99.90
8593;DHT22;4334;49.982;8.398;2023-04-05T02:24:33;1.70;99.90
8593;DHT22;4334;49.982;8.398;2023-04-05T02:27:00;2.80;99.90
8593;DHT22;4334;49.982;8.398;2023-04-05T02:29:27;1.90;99.90
8593;DHT22;4334;49.982;8.398;2023-04-05T02:31:56;1.90;99.90
8593;DHT22;4334;49.982;8.398;2023-04-05T02:34:23;1.90;99.90
8593;DHT22;4334;49.982;8.398;2023-04-05T02:36:52;2.00;99.90
8593;DHT22;4334;49.982;8.398;2023-04-05T02:39:19;2.00;99.90
8593;DHT22;4334;49.982;8.398;2023-04-05T02:41:46;1.90;99.90
8593;DHT22;4334;49.982;8.398;2023-04-05T02:44:12;1.90;99.90
8593;DHT22;4334;49.982;8.398;2023-04-05T02:46:39;1.90;99.90
8593;DHT22;4334;49.982;8.398;2023-04-05T02:49:06;3.90;99.90
8593;DHT22;4334;49.982;8.398;2023-04-05T02:51:33;2.00;99.90
8593;DHT22;4334;49.982;8.398;2023-04-05T02:54:02;2.00;99.90
8593;DHT22;4334;49.982;8.398;2023-04-05T02:56:29;2.10;99.90
8593;DHT22;4334;49.982;8.398;2023-04-05T02:58:57;2.10;99.90
8593;DHT22;4334;49.982;8.398;2023-04-05T03:01:23;2.00;99.90
8593;DHT22;4334;49.982;8.398;2023-04-05T03:03:51;2.00;99.90
8593;DHT22;4334;49.982;8.398;2023-04-05T03:06:18;5.10;99.90
8593;DHT22;4334;49.982;8.398;2023-04-05T03:08:45;1.90;99.90
8593;DHT22;4334;49.982;8.398;2023-04-05T03:11:15;1.80;99.90
8593;DHT22;4334;49.982;8.398;2023-04-05T03:13:41;1.70;99.90
8593;DHT22;4334;49.982;8.398;2023-04-05T03:16:08;1.80;99.90
8593;DHT22;4334;49.982;8.398;2023-04-05T03:18:35;1.60;99.90
8593;DHT22;4334;49.982;8.398;2023-04-05T03:21:02;1.60;99.90
8593;DHT22;4334;49.982;8.398;2023-04-05T03:23:30;3.00;99.90
8593;DHT22;4334;49.982;8.398;2023-04-05T03:25:58;1.40;99.90
8593;DHT22;4334;49.982;8.398;2023-04-05T03:28:27;1.50;99.90
8593;DHT22;4334;49.982;8.398;2023-04-05T03:30:54;1.40;99.90
8593;DHT22;4334;49.982;8.398;2023-04-05T03:33:21;1.50;99.90
8593;DHT22;4334;49.982;8.398;2023-04-05T03:35:48;1.60;99.90
8593;DHT22;4334;49.982;8.398;2023-04-05T03:38:15;1.60;99.90
8593;DHT22;4334;49.982;8.398;2023-04-05T03:40:42;5.30;99.90
8593;DHT22;4334;49.982;8.398;2023-04-05T03:43:10;1.60;99.90
8593;DHT22;4334;49.982;8.398;2023-04-05T03:45:38;1.70;99.90
8593;DHT22;4334;49.982;8.398;2023-04-05T03:48:05;1.60;99.90
8593;DHT22;4334;49.982;8.398;2023-04-05T03:50:32;1.60;99.90
8593;DHT22;4334;49.982;8.398;2023-04-05T03:52:59;1.60;99.90
8593;DHT22;4334;49.982;8.398;2023-04-05T03:55:26;1.60;99.90
8593;DHT22;4334;49.982;8.398;2023-04-05T03:57:53;1.40;99.90
8593;DHT22;4334;49.982;8.398;2023-04-05T04:00:20;1.50;99.90
8593;DHT22;4334;49.982;8.398;2023-04-05T04:02:50;1.50;99.90
8593;DHT22;4334;49.982;8.398;2023-04-05T04:05:18;1.30;99.90
8593;DHT22;4334;49.982;8.398;2023-04-05T04:07:45;1.20;99.90
8593;DHT22;4334;49.982;8.398;2023-04-05T04:10:14;1.20;99.90
8593;DHT22;4334;49.982;8.398;2023-04-05T04:12:42;1.30;99.90
8593;DHT22;4334;49.982;8.398;2023-04-05T04:15:09;1.30;99.90
8593;DHT22;4334;49.982;8.398;2023-04-05T04:17:37;1.30;99.90
8593;DHT22;4334;49.982;8.398;2023-04-05T04:20:07;1.20;99.90
8593;DHT22;4334;49.982;8.398;2023-04-05T04:22:35;-0.60;99.90
8593;DHT22;4334;49.982;8.398;2023-04-05T04:25:05;1.80;99.90
8593;DHT22;4334;49.982;8.398;2023-04-05T04:27:34;3.30;99.90
8593;DHT22;4334;49.982;8.398;2023-04-05T04:30:01;1.20;99.90
8593;DHT22;4334;49.982;8.398;2023-04-05T04:32:29;1.30;99.90
8593;DHT22;4334;49.982;8.398;2023-04-05T04:35:12;1.30;99.90
8593;DHT22;4334;49.982;8.398;2023-04-05T04:37:44;1.30;99.90
8593;DHT22;4334;49.982;8.398;2023-04-05T04:40:12;1.30;99.90
8593;DHT22;4334;49.982;8.398;2023-04-05T04:42:42;2.20;99.90
8593;DHT22;4334;49.982;8.398;2023-04-05T04:45:11;1.20;99.90
8593;DHT22;4334;49.982;8.398;2023-04-05T04:47:41;1.10;99.90
8593;DHT22;4334;49.982;8.398;2023-04-05T04:50:09;1.10;99.90
8593;DHT22;4334;49.982;8.398;2023-04-05T04:52:38;1.80;99.90
8593;DHT22;4334;49.982;8.398;2023-04-05T04:55:07;1.00;99.90
8593;DHT22;4334;49.982;8.398;2023-04-05T04:57:34;1.00;99.90
8593;DHT22;4334;49.982;8.398;2023-04-05T05:00:01;0.90;99.90
8593;DHT22;4334;49.982;8.398;2023-04-05T05:02:32;1.00;99.90
8593;DHT22;4334;49.982;8.398;2023-04-05T05:04:59;1.00;99.90
8593;DHT22;4334;49.982;8.398;2023-04-05T05:07:26;1.00;99.90
8593;DHT22;4334;49.982;8.398;2023-04-05T05:09:54;1.10;99.90
8593;DHT22;4334;49.982;8.398;2023-04-05T05:12:21;1.10;99.90
8593;DHT22;4334;49.982;8.398;2023-04-05T05:14:48;1.00;99.90
8593;DHT22;4334;49.982;8.398;2023-04-05T05:17:15;1.00;99.90
8593;DHT22;4334;49.982;8.398;2023-04-05T05:19:41;1.10;99.90
8593;DHT22;4334;49.982;8.398;2023-04-05T05:22:08;1.20;99.90
8593;DHT22;4334;49.982;8.398;2023-04-05T05:24:35;1.50;99.90
8593;DHT22;4334;49.982;8.398;2023-04-05T05:27:04;1.80;99.90
8593;DHT22;4334;49.982;8.398;2023-04-05T05:29:30;2.20;99.90
8593;DHT22;4334;49.982;8.398;2023-04-05T05:31:58;5.70;99.90
8593;DHT22;4334;49.982;8.398;2023-04-05T05:34:25;2.90;99.90
8593;DHT22;4334;49.982;8.398;2023-04-05T05:36:53;3.20;99.90
8593;DHT22;4334;49.982;8.398;2023-04-05T05:39:20;3.40;99.90
8593;DHT22;4334;49.982;8.398;2023-04-05T05:41:48;3.70;99.90
8593;DHT22;4334;49.982;8.398;2023-04-05T05:44:16;3.90;99.90
8593;DHT22;4334;49.982;8.398;2023-04-05T05:46:43;4.20;99.90
8593;DHT22;4334;49.982;8.398;2023-04-05T05:49:10;4.30;99.90
8593;DHT22;4334;49.982;8.398;2023-04-05T05:51:37;4.40;99.90
8593;DHT22;4334;49.982;8.398;2023-04-05T05:54:04;4.50;99.90
8593;DHT22;4334;49.982;8.398;2023-04-05T05:56:31;4.80;99.90
8593;DHT22;4334;49.982;8.398;2023-04-05T05:58:57;8.00;99.90
8593;DHT22;4334;49.982;8.398;2023-04-05T06:01:27;5.40;99.90
8593;DHT22;4334;49.982;8.398;2023-04-05T06:03:54;5.70;99.90
8593;DHT22;4334;49.982;8.398;2023-04-05T06:06:22;5.60;99.90
8593;DHT22;4334;49.982;8.398;2023-04-05T06:08:48;5.50;99.90
8593;DHT22;4334;49.982;8.398;2023-04-05T06:11:18;5.70;99.90
8593;DHT22;4334;49.982;8.398;2023-04-05T06:13:46;5.50;99.90
8593;DHT22;4334;49.982;8.398;2023-04-05T06:16:13;9.10;99.90
8593;DHT22;4334;49.982;8.398;2023-04-05T06:18:41;6.00;99.90
8593;DHT22;4334;49.982;8.398;2023-04-05T06:21:08;6.00;99.90
8593;DHT22;4334;49.982;8.398;2023-04-05T06:23:35;6.10;99.90
8593;DHT22;4334;49.982;8.398;2023-04-05T06:26:02;6.10;99.90
8593;DHT22;4334;49.982;8.398;2023-04-05T06:28:29;6.20;99.90
8593;DHT22;4334;49.982;8.398;2023-04-05T06:30:57;6.30;99.90
8593;DHT22;4334;49.982;8.398;2023-04-05T06:33:24;6.30;99.90
8593;DHT22;4334;49.982;8.398;2023-04-05T06:35:53;6.60;99.90
8593;DHT22;4334;49.982;8.398;2023-04-05T06:38:20;6.90;99.90
8593;DHT22;4334;49.982;8.398;2023-04-05T06:40:47;7.20;99.90
8593;DHT22;4334;49.982;8.398;2023-04-05T06:43:14;6.90;99.90
8593;DHT22;4334;49.982;8.398;2023-04-05T06:45:41;7.20;99.90
8593;DHT22;4334;49.982;8.398;2023-04-05T06:48:08;7.90;99.90
8593;DHT22;4334;49.982;8.398;2023-04-05T06:50:36;7.00;99.90
8593;DHT22;4334;49.982;8.398;2023-04-05T06:53:04;7.00;99.90
8593;DHT22;4334;49.982;8.398;2023-04-05T06:55:31;7.00;99.90
8593;DHT22;4334;49.982;8.398;2023-04-05T06:57:58;7.10;99.90
8593;DHT22;4334;49.982;8.398;2023-04-05T07:00:25;7.20;99.90
8593;DHT22;4334;49.982;8.398;2023-04-05T07:02:52;7.60;99.90
8593;DHT22;4334;49.982;8.398;2023-04-05T07:05:19;7.90;99.80
8593;DHT22;4334;49.982;8.398;2023-04-05T07:07:45;7.90;99.30
8593;DHT22;4334;49.982;8.398;2023-04-05T07:10:14;7.80;99.20
8593;DHT22;4334;49.982;8.398;2023-04-05T07:12:42;7.70;99.90
8593;DHT22;4334;49.982;8.398;2023-04-05T07:15:10;8.00;99.70
8593;DHT22;4334;49.982;8.398;2023-04-05T07:17:37;8.50;98.80
8593;DHT22;4334;49.982;8.398;2023-04-05T07:20:05;8.50;98.40
8593;DHT22;4334;49.982;8.398;2023-04-05T07:22:34;8.50;98.00
8593;DHT22;4334;49.982;8.398;2023-04-05T07:25:01;8.50;98.00
8593;DHT22;4334;49.982;8.398;2023-04-05T07:27:29;8.40;97.30
8593;DHT22;4334;49.982;8.398;2023-04-05T07:29:57;8.20;97.60
8593;DHT22;4334;49.982;8.398;2023-04-05T07:32:23;8.80;96.90
8593;DHT22;4334;49.982;8.398;2023-04-05T07:34:50;8.90;96.70
8593;DHT22;4334;49.982;8.398;2023-04-05T07:37:17;10.90;96.90
8593;DHT22;4334;49.982;8.398;2023-04-05T07:39:44;8.60;97.30
8593;DHT22;4334;49.982;8.398;2023-04-05T07:42:11;9.10;96.90
8593;DHT22;4334;49.982;8.398;2023-04-05T07:44:39;9.00;96.20
8593;DHT22;4334;49.982;8.398;2023-04-05T07:47:06;9.10;95.80
8593;DHT22;4334;49.982;8.398;2023-04-05T07:49:33;9.10;95.80
8593;DHT22;4334;49.982;8.398;2023-04-05T07:52:02;8.90;94.50
8593;DHT22;4334;49.982;8.398;2023-04-05T07:54:30;8.90;94.30
8593;DHT22;4334;49.982;8.398;2023-04-05T07:56:58;9.80;93.60
8593;DHT22;4334;49.982;8.398;2023-04-05T07:59:25;9.80;93.30
8593;DHT22;4334;49.982;8.398;2023-04-05T08:01:54;11.10;94.30
8593;DHT22;4334;49.982;8.398;2023-04-05T08:04:21;9.10;94.00
8593;DHT22;4334;49.982;8.398;2023-04-05T08:06:49;8.90;93.10
8593;DHT22;4334;49.982;8.398;2023-04-05T08:09:16;8.80;93.20
8593;DHT22;4334;49.982;8.398;2023-04-05T08:11:43;8.60;93.40
8593;DHT22;4334;49.982;8.398;2023-04-05T08:14:10;9.40;92.10
8593;DHT22;4334;49.982;8.398;2023-04-05T08:16:38;10.10;90.80
8593;DHT22;4334;49.982;8.398;2023-04-05T08:19:07;10.30;90.70
8593;DHT22;4334;49.982;8.398;2023-04-05T08:21:34;10.20;90.00
8593;DHT22;4334;49.982;8.398;2023-04-05T08:24:01;10.00;90.20
8593;DHT22;4334;49.982;8.398;2023-04-05T08:26:29;10.00;90.50
8593;DHT22;4334;49.982;8.398;2023-04-05T08:28:56;9.60;90.90
8593;DHT22;4334;49.982;8.398;2023-04-05T08:31:23;10.10;90.30
8593;DHT22;4334;49.982;8.398;2023-04-05T08:33:50;11.10;88.20
8593;DHT22;4334;49.982;8.398;2023-04-05T08:36:18;11.40;84.40
8593;DHT22;4334;49.982;8.398;2023-04-05T08:38:45;10.80;83.40
8593;DHT22;4334;49.982;8.398;2023-04-05T08:41:17;10.70;84.20
8593;DHT22;4334;49.982;8.398;2023-04-05T08:43:54;10.70;84.30
8593;DHT22;4334;49.982;8.398;2023-04-05T08:46:23;10.10;85.50
8593;DHT22;4334;49.982;8.398;2023-04-05T08:48:50;10.80;84.60
8593;DHT22;4334;49.982;8.398;2023-04-05T08:51:19;12.80;88.40
8593;DHT22;4334;49.982;8.398;2023-04-05T08:53:46;10.50;85.80
8593;DHT22;4334;49.982;8.398;2023-04-05T08:56:14;10.90;83.40
8593;DHT22;4334;49.982;8.398;2023-04-05T08:58:46;11.10;81.80
8593;DHT22;4334;49.982;8.398;2023-04-05T09:01:15;10.40;83.70
8593;DHT22;4334;49.982;8.398;2023-04-05T09:03:43;10.80;83.60
8593;DHT22;4334;49.982;8.398;2023-04-05T09:06:12;11.10;83.20
8593;DHT22;4334;49.982;8.398;2023-04-05T09:08:40;10.20;83.00
8593;DHT22;4334;49.982;8.398;2023-04-05T09:11:08;11.70;86.20
8593;DHT22;4334;49.982;8.398;2023-04-05T09:13:37;10.30;86.00
8593;DHT22;4334;49.982;8.398;2023-04-05T09:16:04;11.20;82.50
8593;DHT22;4334;49.982;8.398;2023-04-05T09:18:32;11.20;81.90
8593;DHT22;4334;49.982;8.398;2023-04-05T09:21:03;11.70;79.80
8593;DHT22;4334;49.982;8.398;2023-04-05T09:23:31;11.70;76.80
8593;DHT22;4334;49.982;8.398;2023-04-05T09:26:15;12.10;77.30
8593;DHT22;4334;49.982;8.398;2023-04-05T09:28:42;12.50;76.00
8593;DHT22;4334;49.982;8.398;2023-04-05T09:31:10;14.40;77.00
8593;DHT22;4334;49.982;8.398;2023-04-05T09:33:57;12.10;76.00
8593;DHT22;4334;49.982;8.398;2023-04-05T09:36:24;12.00;75.50
8593;DHT22;4334;49.982;8.398;2023-04-05T09:38:53;11.90;75.60
8593;DHT22;4334;49.982;8.398;2023-04-05T09:41:31;12.50;76.30
8593;DHT22;4334;49.982;8.398;2023-04-05T09:43:59;13.20;73.30
8593;DHT22;4334;49.982;8.398;2023-04-05T09:46:28;11.90;75.00
8593;DHT22;4334;49.982;8.398;2023-04-05T09:48:56;12.00;76.60
8593;DHT22;4334;49.982;8.398;2023-04-05T09:51:23;12.10;75.60
8593;DHT22;4334;49.982;8.398;2023-04-05T09:53:58;12.60;74.80
8593;DHT22;4334;49.982;8.398;2023-04-05T09:56:26;12.20;75.40
8593;DHT22;4334;49.982;8.398;2023-04-05T09:58:59;12.00;73.10
8593;DHT22;4334;49.982;8.398;2023-04-05T10:01:28;11.20;72.80
8593;DHT22;4334;49.982;8.398;2023-04-05T10:03:56;11.40;74.90
8593;DHT22;4334;49.982;8.398;2023-04-05T10:06:34;11.80;73.40
8593;DHT22;4334;49.982;8.398;2023-04-05T10:09:01;14.30;74.60
8593;DHT22;4334;49.982;8.398;2023-04-05T10:11:29;11.20;73.10
8593;DHT22;4334;49.982;8.398;2023-04-05T10:13:58;11.10;74.60
8593;DHT22;4334;49.982;8.398;2023-04-05T10:16:27;12.90;75.10
8593;DHT22;4334;49.982;8.398;2023-04-05T10:18:54;12.00;72.80
8593;DHT22;4334;49.982;8.398;2023-04-05T10:21:24;12.70;72.30
8593;DHT22;4334;49.982;8.398;2023-04-05T10:23:58;12.40;70.60
8593;DHT22;4334;49.982;8.398;2023-04-05T10:26:35;12.10;70.90
8593;DHT22;4334;49.982;8.398;2023-04-05T10:29:11;12.30;71.30
8593;DHT22;4334;49.982;8.398;2023-04-05T10:31:50;12.40;71.00
8593;DHT22;4334;49.982;8.398;2023-04-05T10:34:37;12.70;70.90
8593;DHT22;4334;49.982;8.398;2023-04-05T10:37:05;12.50;70.30
8593;DHT22;4334;49.982;8.398;2023-04-05T10:39:34;14.30;71.00
8593;DHT22;4334;49.982;8.398;2023-04-05T10:42:08;12.80;68.00
8593;DHT22;4334;49.982;8.398;2023-04-05T10:44:40;12.10;69.80
8593;DHT22;4334;49.982;8.398;2023-04-05T10:47:10;12.90;66.60
8593;DHT22;4334;49.982;8.398;2023-04-05T10:49:42;12.90;67.60
8593;DHT22;4334;49.982;8.398;2023-04-05T10:52:10;12.00;66.20
8593;DHT22;4334;49.982;8.398;2023-04-05T10:54:37;12.90;67.60
8593;DHT22;4334;49.982;8.398;2023-04-05T10:57:06;14.40;67.30
8593;DHT22;4334;49.982;8.398;2023-04-05T10:59:35;12.80;64.10
8593;DHT22;4334;49.982;8.398;2023-04-05T11:02:08;12.70;65.10
8593;DHT22;4334;49.982;8.398;2023-04-05T11:04:36;13.60;63.80
8593;DHT22;4334;49.982;8.398;2023-04-05T11:07:12;14.40;64.50
8593;DHT22;4334;49.982;8.398;2023-04-05T11:09:50;13.90;63.60
8593;DHT22;4334;49.982;8.398;2023-04-05T11:12:18;14.10;65.70
8593;DHT22;4334;49.982;8.398;2023-04-05T11:14:44;14.90;63.80
8593;DHT22;4334;49.982;8.398;2023-04-05T11:17:27;14.90;63.00
8593;DHT22;4334;49.982;8.398;2023-04-05T11:20:02;15.00;61.00
8593;DHT22;4334;49.982;8.398;2023-04-05T11:22:30;15.00;61.70
8593;DHT22;4334;49.982;8.398;2023-04-05T11:24:58;15.40;60.60
8593;DHT22;4334;49.982;8.398;2023-04-05T11:27:28;15.20;60.70
8593;DHT22;4334;49.982;8.398;2023-04-05T11:29:56;15.60;60.50
8593;DHT22;4334;49.982;8.398;2023-04-05T11:32:36;15.00;59.20
8593;DHT22;4334;49.982;8.398;2023-04-05T11:35:06;14.90;59.00
8593;DHT22;4334;49.982;8.398;2023-04-05T11:37:51;13.50;60.30
8593;DHT22;4334;49.982;8.398;2023-04-05T11:40:26;13.90;61.60
8593;DHT22;4334;49.982;8.398;2023-04-05T11:43:05;14.80;59.00
8593;DHT22;4334;49.982;8.398;2023-04-05T11:45:34;14.80;59.50
8593;DHT22;4334;49.982;8.398;2023-04-05T11:48:05;17.60;59.60
8593;DHT22;4334;49.982;8.398;2023-04-05T11:50:34;16.10;56.90
8593;DHT22;4334;49.982;8.398;2023-04-05T11:53:11;14.40;56.90
8593;DHT22;4334;49.982;8.398;2023-04-05T11:55:39;14.00;58.10
8593;DHT22;4334;49.982;8.398;2023-04-05T11:58:17;15.80;58.10
8593;DHT22;4334;49.982;8.398;2023-04-05T12:00:46;15.00;56.30
8593;DHT22;4334;49.982;8.398;2023-04-05T12:03:15;14.80;57.10
8593;DHT22;4334;49.982;8.398;2023-04-05T12:05:46;14.20;57.50
8593;DHT22;4334;49.982;8.398;2023-04-05T12:08:13;14.00;56.90
8593;DHT22;4334;49.982;8.398;2023-04-05T12:10:41;14.10;56.40
8593;DHT22;4334;49.982;8.398;2023-04-05T12:13:08;14.80;54.90
8593;DHT22;4334;49.982;8.398;2023-04-05T12:15:39;15.90;53.60
8593;DHT22;4334;49.982;8.398;2023-04-05T12:18:12;15.80;53.70
8593;DHT22;4334;49.982;8.398;2023-04-05T12:20:42;15.00;56.20
8593;DHT22;4334;49.982;8.398;2023-04-05T12:23:10;15.90;53.80
8593;DHT22;4334;49.982;8.398;2023-04-05T12:25:37;16.00;54.30
8593;DHT22;4334;49.982;8.398;2023-04-05T12:28:05;16.30;53.40
8593;DHT22;4334;49.982;8.398;2023-04-05T12:30:33;15.10;53.30
8593;DHT22;4334;49.982;8.398;2023-04-05T12:33:07;15.90;55.30
8593;DHT22;4334;49.982;8.398;2023-04-05T12:35:35;16.30;52.20
8593;DHT22;4334;49.982;8.398;2023-04-05T12:38:04;15.80;51.50
8593;DHT22;4334;49.982;8.398;2023-04-05T12:40:33;15.60;50.10
8593;DHT22;4334;49.982;8.398;2023-04-05T12:43:01;14.90;52.70
8593;DHT22;4334;49.982;8.398;2023-04-05T12:45:30;14.80;52.50
8593;DHT22;4334;49.982;8.398;2023-04-05T12:48:07;14.50;51.70
8593;DHT22;4334;49.982;8.398;2023-04-05T12:50:35;14.80;52.30
8593;DHT22;4334;49.982;8.398;2023-04-05T12:53:05;14.60;51.40
8593;DHT22;4334;49.982;8.398;2023-04-05T12:55:42;14.80;51.30
8593;DHT22;4334;49.982;8.398;2023-04-05T12:58:13;15.30;52.40
8593;DHT22;4334;49.982;8.398;2023-04-05T13:00:42;14.50;52.50
8593;DHT22;4334;49.982;8.398;2023-04-05T13:03:15;14.50;49.30
8593;DHT22;4334;49.982;8.398;2023-04-05T13:05:42;14.40;50.20
8593;DHT22;4334;49.982;8.398;2023-04-05T13:08:11;14.40;50.80
8593;DHT22;4334;49.982;8.398;2023-04-05T13:10:37;14.00;51.20
8593;DHT22;4334;49.982;8.398;2023-04-05T13:13:04;14.40;50.20
8593;DHT22;4334;49.982;8.398;2023-04-05T13:15:31;14.10;50.50
8593;DHT22;4334;49.982;8.398;2023-04-05T13:17:58;14.00;50.80
8593;DHT22;4334;49.982;8.398;2023-04-05T13:20:25;14.30;52.00
8593;DHT22;4334;49.982;8.398;2023-04-05T13:22:52;14.40;52.20
8593;DHT22;4334;49.982;8.398;2023-04-05T13:25:20;14.30;52.50
8593;DHT22;4334;49.982;8.398;2023-04-05T13:27:47;15.20;50.70
8593;DHT22;4334;49.982;8.398;2023-04-05T13:30:15;15.60;50.30
8593;DHT22;4334;49.982;8.398;2023-04-05T13:32:42;15.30;50.60
8593;DHT22;4334;49.982;8.398;2023-04-05T13:35:09;18.30;54.10
8593;DHT22;4334;49.982;8.398;2023-04-05T13:37:37;14.50;52.90
8593;DHT22;4334;49.982;8.398;2023-04-05T13:40:06;14.30;54.00
8593;DHT22;4334;49.982;8.398;2023-04-05T13:42:34;14.10;53.00
8593;DHT22;4334;49.982;8.398;2023-04-05T13:45:01;13.80;54.10
8593;DHT22;4334;49.982;8.398;2023-04-05T13:47:29;14.40;53.40
8593;DHT22;4334;49.982;8.398;2023-04-05T13:49:56;14.80;53.50
8593;DHT22;4334;49.982;8.398;2023-04-05T13:52:22;14.20;53.00
8593;DHT22;4334;49.982;8.398;2023-04-05T13:54:50;13.50;53.90
8593;DHT22;4334;49.982;8.398;2023-04-05T13:57:17;12.80;53.00
8593;DHT22;4334;49.982;8.398;2023-04-05T13:59:46;13.00;54.40
8593;DHT22;4334;49.982;8.398;2023-04-05T14:02:13;13.70;54.70
8593;DHT22;4334;49.982;8.398;2023-04-05T14:04:42;14.50;53.30
8593;DHT22;4334;49.982;8.398;2023-04-05T14:07:09;14.30;50.20
8593;DHT22;4334;49.982;8.398;2023-04-05T14:09:36;14.70;52.50
8593;DHT22;4334;49.982;8.398;2023-04-05T14:12:03;14.90;52.00
8593;DHT22;4334;49.982;8.398;2023-04-05T14:14:31;14.50;52.70
8593;DHT22;4334;49.982;8.398;2023-04-05T14:17:00;14.60;51.30
8593;DHT22;4334;49.982;8.398;2023-04-05T14:19:27;14.20;51.40
8593;DHT22;4334;49.982;8.398;2023-04-05T14:21:54;14.50;51.30
8593;DHT22;4334;49.982;8.398;2023-04-05T14:24:21;15.10;50.90
8593;DHT22;4334;49.982;8.398;2023-04-05T14:26:48;14.90;50.50
8593;DHT22;4334;49.982;8.398;2023-04-05T14:29:15;14.90;49.90
8593;DHT22;4334;49.982;8.398;2023-04-05T14:31:42;14.90;51.10
8593;DHT22;4334;49.982;8.398;2023-04-05T14:34:11;14.60;51.20
8593;DHT22;4334;49.982;8.398;2023-04-05T14:36:38;14.60;51.40
8593;DHT22;4334;49.982;8.398;2023-04-05T14:39:05;14.80;51.50
8593;DHT22;4334;49.982;8.398;2023-04-05T14:41:32;15.50;52.30
8593;DHT22;4334;49.982;8.398;2023-04-05T14:44:00;14.90;50.20
8593;DHT22;4334;49.982;8.398;2023-04-05T14:46:27;14.90;51.80
8593;DHT22;4334;49.982;8.398;2023-04-05T14:48:53;15.00;51.20
8593;DHT22;4334;49.982;8.398;2023-04-05T14:51:22;15.20;51.40
8593;DHT22;4334;49.982;8.398;2023-04-05T14:53:49;15.40;50.90
8593;DHT22;4334;49.982;8.398;2023-04-05T14:56:17;16.20;50.70
8593;DHT22;4334;49.982;8.398;2023-04-05T14:58:44;15.70;49.90
8593;DHT22;4334;49.982;8.398;2023-04-05T15:01:12;15.00;50.10
8593;DHT22;4334;49.982;8.398;2023-04-05T15:03:39;15.50;50.40
8593;DHT22;4334;49.982;8.398;2023-04-05T15:06:06;16.00;51.80
8593;DHT22;4334;49.982;8.398;2023-04-05T15:08:34;16.60;51.50
8593;DHT22;4334;49.982;8.398;2023-04-05T15:11:01;16.80;51.10
8593;DHT22;4334;49.982;8.398;2023-04-05T15:13:30;16.60;50.00
8593;DHT22;4334;49.982;8.398;2023-04-05T15:15:57;17.30;49.80
8593;DHT22;4334;49.982;8.398;2023-04-05T15:18:24;16.80;48.00
8593;DHT22;4334;49.982;8.398;2023-04-05T15:20:50;16.80;47.80
8593;DHT22;4334;49.982;8.398;2023-04-05T15:23:18;16.70;49.10
8593;DHT22;4334;49.982;8.398;2023-04-05T15:25:46;16.80;48.00
8593;DHT22;4334;49.982;8.398;2023-04-05T15:28:13;16.30;48.50
8593;DHT22;4334;49.982;8.398;2023-04-05T15:30:40;16.10;49.40
8593;DHT22;4334;49.982;8.398;2023-04-05T15:33:10;15.80;49.80
8593;DHT22;4334;49.982;8.398;2023-04-05T15:35:37;16.00;50.80
8593;DHT22;4334;49.982;8.398;2023-04-05T15:38:04;16.30;49.60
8593;DHT22;4334;49.982;8.398;2023-04-05T15:40:31;16.80;50.00
8593;DHT22;4334;49.982;8.398;2023-04-05T15:42:59;17.00;49.90
8593;DHT22;4334;49.982;8.398;2023-04-05T15:45:26;18.10;48.80
8593;DHT22;4334;49.982;8.398;2023-04-05T15:47:53;17.70;48.40
8593;DHT22;4334;49.982;8.398;2023-04-05T15:50:20;17.20;47.80
8593;DHT22;4334;49.982;8.398;2023-04-05T15:52:47;17.20;48.80
8593;DHT22;4334;49.982;8.398;2023-04-05T15:55:14;16.10;49.20
8593;DHT22;4334;49.982;8.398;2023-04-05T15:57:41;15.90;49.70
8593;DHT22;4334;49.982;8.398;2023-04-05T16:00:12;14.80;50.70
8593;DHT22;4334;49.982;8.398;2023-04-05T16:02:42;14.90;51.80
8593;DHT22;4334;49.982;8.398;2023-04-05T16:05:08;15.00;51.30
8593;DHT22;4334;49.982;8.398;2023-04-05T16:07:36;15.40;51.80
8593;DHT22;4334;49.982;8.398;2023-04-05T16:10:03;15.30;51.00
8593;DHT22;4334;49.982;8.398;2023-04-05T16:12:31;13.40;49.80
8593;DHT22;4334;49.982;8.398;2023-04-05T16:14:58;15.80;51.10
8593;DHT22;4334;49.982;8.398;2023-04-05T16:17:27;16.30;50.00
8593;DHT22;4334;49.982;8.398;2023-04-05T16:19:54;15.70;49.90